createdAt,value
2023-02-01T00:00:31.561Z,77.70
2023-02-01T00:03:20.001Z,77.50
2023-02-01T00:06:05.806Z,80.40
2023-02-01T00:08:55.197Z,86.40
2023-02-01T00:11:41.175Z,88.90
2023-02-01T00:14:26.908Z,89.50
2023-02-01T00:17:12.169Z,89.60
2023-02-01T00:19:57.659Z,89.10
2023-02-01T00:22:43.164Z,89.00
2023-02-01T00:25:28.623Z,89.00
2023-02-01T00:28:14.289Z,89.50
2023-02-01T00:31:05.349Z,89.50
2023-02-01T00:33:51.238Z,90.40
2023-02-01T00:36:36.760Z,91.10
2023-02-01T00:39:22.063Z,91.80
2023-02-01T00:42:07.354Z,93.80
2023-02-01T00:44:52.887Z,93.60
2023-02-01T00:47:38.427Z,93.60
2023-02-01T00:50:24.270Z,93.60
2023-02-01T00:53:10.490Z,93.90
2023-02-01T00:55:57.267Z,92.90
2023-02-01T00:58:45.276Z,93.50
2023-02-01T01:01:31.181Z,95.40
2023-02-01T01:04:16.762Z,94.40
2023-02-01T01:07:02.371Z,93.60
2023-02-01T01:09:47.911Z,93.10
2023-02-01T01:12:33.537Z,92.20
2023-02-01T01:15:19.038Z,91.20
2023-02-01T01:18:05.005Z,90.00
2023-02-01T01:20:50.334Z,88.90
2023-02-01T01:23:37.110Z,88.60
2023-02-01T01:26:26.151Z,88.50
2023-02-01T01:29:12.161Z,89.10
2023-02-01T01:31:57.849Z,88.60
2023-02-01T01:34:43.437Z,89.10
2023-02-01T01:37:29.103Z,88.70
2023-02-01T01:40:15.328Z,87.50
2023-02-01T01:43:00.803Z,86.60
2023-02-01T01:45:46.101Z,87.00
2023-02-01T01:48:32.115Z,90.70
2023-02-01T01:51:22.258Z,95.70
2023-02-01T01:54:22.630Z,94.90
2023-02-01T01:57:15.537Z,95.00
2023-02-01T02:00:08.801Z,95.10
2023-02-01T02:03:00.096Z,94.60
2023-02-01T02:05:46.728Z,94.20
2023-02-01T02:08:32.726Z,93.10
2023-02-01T02:11:18.717Z,93.80
2023-02-01T02:14:06.854Z,92.80
2023-02-01T02:17:11.591Z,92.10
2023-02-01T02:20:13.063Z,91.30
2023-02-01T02:23:23.579Z,91.60
2023-02-01T02:26:51.472Z,90.20
2023-02-01T02:30:02.421Z,89.80
2023-02-01T02:32:59.742Z,92.80
2023-02-01T02:36:22.257Z,92.70
2023-02-01T02:39:29.590Z,99.00
2023-02-01T02:42:58.583Z,99.90
2023-02-01T02:46:23.851Z,99.90
2023-02-01T02:49:37.905Z,99.90
2023-02-01T02:52:43.300Z,99.90
2023-02-01T02:55:30.679Z,99.90
2023-02-01T02:58:36.427Z,99.90
2023-02-01T03:01:40.168Z,99.90
2023-02-01T03:04:26.614Z,99.90
2023-02-01T03:07:36.672Z,99.90
2023-02-01T03:10:43.751Z,99.90
2023-02-01T03:13:51.045Z,99.90
2023-02-01T03:16:46.477Z,99.90
2023-02-01T03:19:44.531Z,99.90
2023-02-01T03:22:32.832Z,99.90
2023-02-01T03:25:27.860Z,99.90
2023-02-01T03:28:13.371Z,99.90
2023-02-01T03:30:59.430Z,99.90
2023-02-01T03:33:44.937Z,99.90
2023-02-01T03:36:38.372Z,99.90
2023-02-01T03:39:42.276Z,99.90
2023-02-01T03:42:42.205Z,99.90
2023-02-01T03:45:41.722Z,99.90
2023-02-01T03:48:29.670Z,99.90
2023-02-01T03:51:15.608Z,99.90
2023-02-01T03:54:03.423Z,99.90
2023-02-01T03:56:51.728Z,99.90
2023-02-01T03:59:43.612Z,99.90
2023-02-01T04:02:29.310Z,99.90
2023-02-01T04:05:15.020Z,99.90
2023-02-01T04:08:01.114Z,99.90
2023-02-01T04:10:46.844Z,99.90
2023-02-01T04:13:32.111Z,99.90
2023-02-01T04:16:17.680Z,99.90
2023-02-01T04:19:03.291Z,99.90
2023-02-01T04:21:48.998Z,99.90
2023-02-01T04:24:34.522Z,99.90
2023-02-01T04:27:20.238Z,99.90
2023-02-01T04:30:10.672Z,99.90
2023-02-01T04:32:56.403Z,99.90
2023-02-01T04:35:42.240Z,99.90
2023-02-01T04:38:30.334Z,99.90
2023-02-01T04:41:16.850Z,99.90
2023-02-01T04:44:02.499Z,99.90
2023-02-01T04:46:48.702Z,99.90
2023-02-01T04:49:34.736Z,99.90
2023-02-01T04:52:19.985Z,99.90
2023-02-01T04:55:06.057Z,99.90
2023-02-01T04:57:51.560Z,99.90
2023-02-01T05:00:38.402Z,99.90
2023-02-01T05:03:23.921Z,99.90
2023-02-01T05:06:09.431Z,99.90
2023-02-01T05:08:55.132Z,99.90
2023-02-01T05:11:59.287Z,99.90
2023-02-01T05:14:44.737Z,99.90
2023-02-01T05:17:30.426Z,99.90
2023-02-01T05:20:16.108Z,99.90
2023-02-01T05:23:01.618Z,99.90
2023-02-01T05:25:46.970Z,99.90
2023-02-01T05:28:32.645Z,99.90
2023-02-01T05:31:18.504Z,99.90
2023-02-01T05:34:04.624Z,99.90
2023-02-01T05:36:49.949Z,99.90
2023-02-01T05:39:35.514Z,99.90
2023-02-01T05:42:20.939Z,99.90
2023-02-01T05:45:08.648Z,99.90
2023-02-01T05:47:54.263Z,99.90
2023-02-01T05:50:39.956Z,99.90
2023-02-01T05:53:25.463Z,99.90
2023-02-01T05:56:11.059Z,99.90
2023-02-01T05:58:56.583Z,99.90
2023-02-01T06:01:42.130Z,99.90
2023-02-01T06:04:27.647Z,99.90
2023-02-01T06:07:13.371Z,99.90
2023-02-01T06:09:58.646Z,99.90
2023-02-01T06:12:46.175Z,99.90
2023-02-01T06:15:32.537Z,99.90
2023-02-01T06:18:18.338Z,99.90
2023-02-01T06:21:04.060Z,99.90
2023-02-01T06:23:49.773Z,99.90
2023-02-01T06:26:34.995Z,99.90
2023-02-01T06:29:20.530Z,99.90
2023-02-01T06:32:06.422Z,99.90
2023-02-01T06:34:53.573Z,99.90
2023-02-01T06:37:39.287Z,99.90
2023-02-01T06:40:24.961Z,99.90
2023-02-01T06:43:10.952Z,99.90
2023-02-01T06:46:02.308Z,99.90
2023-02-01T06:48:47.561Z,99.90
2023-02-01T06:51:33.263Z,99.90
2023-02-01T06:54:18.934Z,99.90
2023-02-01T06:57:04.671Z,99.90
2023-02-01T06:59:50.270Z,99.90
2023-02-01T07:02:35.707Z,99.90
2023-02-01T07:05:21.801Z,99.90
2023-02-01T07:08:07.242Z,99.90
2023-02-01T07:10:52.831Z,99.90
2023-02-01T07:13:38.829Z,99.90
2023-02-01T07:16:24.593Z,99.90
2023-02-01T07:19:10.162Z,99.90
2023-02-01T07:21:55.720Z,99.90
2023-02-01T07:24:41.294Z,99.90
2023-02-01T07:27:27.013Z,99.90
2023-02-01T07:30:12.808Z,99.90
2023-02-01T07:33:02.047Z,99.90
2023-02-01T07:35:48.489Z,99.90
2023-02-01T07:38:34.506Z,99.90
2023-02-01T07:41:20.180Z,99.90
2023-02-01T07:44:05.665Z,99.90
2023-02-01T07:46:51.318Z,99.90
2023-02-01T07:49:36.703Z,99.90
2023-02-01T07:52:22.158Z,99.90
2023-02-01T07:55:08.582Z,99.90
2023-02-01T07:57:54.074Z,99.90
2023-02-01T08:00:58.094Z,99.90
2023-02-01T08:03:43.496Z,99.90
2023-02-01T08:06:32.041Z,99.90
2023-02-01T08:09:17.433Z,99.90
2023-02-01T08:12:02.801Z,98.00
2023-02-01T08:14:48.409Z,98.80
2023-02-01T08:17:34.461Z,98.70
2023-02-01T08:20:20.468Z,98.80
2023-02-01T08:23:09.859Z,98.10
2023-02-01T08:25:55.464Z,97.00
2023-02-01T08:28:50.028Z,95.40
2023-02-01T08:31:35.368Z,88.80
2023-02-01T08:34:21.341Z,85.00
2023-02-01T08:37:08.256Z,81.20
2023-02-01T08:39:53.488Z,80.60
2023-02-01T08:42:54.274Z,75.10
2023-02-01T08:45:41.203Z,75.40
2023-02-01T08:48:26.799Z,75.60
2023-02-01T08:51:13.906Z,73.20
2023-02-01T08:53:59.455Z,71.40
2023-02-01T08:56:44.770Z,72.10
2023-02-01T08:59:30.499Z,70.80
2023-02-01T09:02:17.659Z,69.60
2023-02-01T09:05:03.256Z,70.70
2023-02-01T09:07:48.615Z,70.50
2023-02-01T09:10:35.796Z,71.60
2023-02-01T09:13:21.333Z,68.50
2023-02-01T09:16:07.146Z,68.90
2023-02-01T09:18:56.665Z,68.60
2023-02-01T09:21:53.639Z,67.90
2023-02-01T09:24:39.266Z,66.70
2023-02-01T09:27:24.782Z,66.40
2023-02-01T09:30:10.863Z,66.30
2023-02-01T09:32:56.300Z,63.50
2023-02-01T09:35:42.114Z,63.30
2023-02-01T09:38:28.438Z,64.00
2023-02-01T09:41:46.024Z,61.70
2023-02-01T09:44:57.635Z,61.40
2023-02-01T09:47:59.044Z,60.40
2023-02-01T09:50:50.931Z,59.40
2023-02-01T09:53:44.039Z,59.80
2023-02-01T09:56:43.239Z,59.40
2023-02-01T09:59:47.445Z,56.70
2023-02-01T10:02:36.826Z,59.20
2023-02-01T10:05:43.320Z,60.10
2023-02-01T10:08:39.332Z,60.20
2023-02-01T10:11:49.626Z,59.60
2023-02-01T10:15:02.955Z,60.90
2023-02-01T10:17:54.336Z,60.40
2023-02-01T10:20:45.639Z,59.90
2023-02-01T10:23:52.028Z,59.70
2023-02-01T10:26:52.629Z,60.00
2023-02-01T10:29:41.251Z,59.00
2023-02-01T10:32:35.797Z,59.70
2023-02-01T10:35:29.456Z,59.40
2023-02-01T10:38:29.057Z,59.50
2023-02-01T10:41:21.000Z,58.00
2023-02-01T10:44:19.067Z,56.40
2023-02-01T10:47:06.077Z,56.30
2023-02-01T10:50:05.052Z,57.50
2023-02-01T10:52:58.428Z,53.40
2023-02-01T10:55:50.499Z,53.60
2023-02-01T10:58:43.177Z,52.90
2023-02-01T11:01:31.302Z,49.70
2023-02-01T11:04:18.821Z,46.40
2023-02-01T11:07:16.373Z,47.20
2023-02-01T11:10:02.959Z,47.50
2023-02-01T11:12:55.133Z,46.10
2023-02-01T11:15:56.257Z,44.30
2023-02-01T11:18:43.040Z,45.60
2023-02-01T11:21:28.980Z,46.10
2023-02-01T11:24:36.611Z,45.90
2023-02-01T11:27:27.399Z,45.50
2023-02-01T11:30:19.367Z,45.60
2023-02-01T11:33:07.192Z,45.40
2023-02-01T11:35:53.389Z,43.60
2023-02-01T11:38:39.275Z,43.80
2023-02-01T11:41:27.792Z,43.60
2023-02-01T11:44:27.642Z,44.50
2023-02-01T11:47:34.499Z,45.90
2023-02-01T11:50:27.822Z,45.80
2023-02-01T11:53:42.156Z,45.80
2023-02-01T11:56:33.445Z,44.40
2023-02-01T11:59:56.908Z,43.40
2023-02-01T12:02:57.646Z,44.20
2023-02-01T12:06:07.543Z,43.80
2023-02-01T12:09:11.837Z,43.90
2023-02-01T12:12:16.430Z,44.80
2023-02-01T12:15:24.719Z,45.30
2023-02-01T12:18:24.727Z,44.60
2023-02-01T12:21:19.676Z,46.00
2023-02-01T12:24:11.008Z,44.60
2023-02-01T12:27:14.745Z,44.60
2023-02-01T12:30:02.691Z,44.20
2023-02-01T12:33:01.465Z,44.50
2023-02-01T12:35:53.100Z,44.50
2023-02-01T12:38:44.542Z,43.90
2023-02-01T12:41:39.655Z,45.00
2023-02-01T12:44:32.451Z,41.90
2023-02-01T12:47:38.065Z,42.20
2023-02-01T12:50:34.550Z,42.90
2023-02-01T12:53:43.034Z,43.50
2023-02-01T12:56:32.503Z,44.70
2023-02-01T12:59:21.417Z,46.30
2023-02-01T13:02:22.032Z,45.30
2023-02-01T13:05:18.446Z,44.70
2023-02-01T13:08:15.223Z,42.90
2023-02-01T13:11:14.841Z,41.00
2023-02-01T13:14:09.280Z,41.40
2023-02-01T13:17:01.996Z,39.20
2023-02-01T13:20:14.592Z,42.90
2023-02-01T13:23:17.891Z,43.80
2023-02-01T13:26:03.895Z,45.60
2023-02-01T13:28:49.738Z,47.50
2023-02-01T13:32:18.258Z,48.30
2023-02-01T13:35:31.240Z,48.70
2023-02-01T13:38:41.223Z,50.00
2023-02-01T13:41:33.784Z,48.60
2023-02-01T13:44:28.842Z,49.30
2023-02-01T13:47:22.787Z,46.40
2023-02-01T13:50:29.881Z,46.90
2023-02-01T13:53:22.305Z,44.80
2023-02-01T13:56:21.022Z,45.70
2023-02-01T13:59:41.800Z,45.10
2023-02-01T14:02:42.446Z,44.00
2023-02-01T14:05:27.986Z,42.20
2023-02-01T14:08:21.736Z,43.90
2023-02-01T14:11:07.664Z,44.90
2023-02-01T14:13:52.934Z,44.40
2023-02-01T14:16:38.343Z,44.40
2023-02-01T14:19:25.179Z,43.50
2023-02-01T14:22:25.297Z,42.50
2023-02-01T14:25:21.473Z,43.80
2023-02-01T14:28:39.541Z,44.40
2023-02-01T14:31:59.442Z,44.90
2023-02-01T14:34:47.988Z,45.40
2023-02-01T14:37:37.004Z,44.80
2023-02-01T14:40:27.115Z,44.50
2023-02-01T14:43:29.201Z,45.00
2023-02-01T14:46:18.113Z,45.60
2023-02-01T14:49:03.224Z,45.00
2023-02-01T14:51:48.992Z,44.80
2023-02-01T14:54:34.654Z,43.80
2023-02-01T14:57:22.236Z,43.60
2023-02-01T15:00:19.005Z,44.70
2023-02-01T15:03:39.733Z,44.10
2023-02-01T15:06:33.324Z,45.90
2023-02-01T15:09:35.296Z,45.80
2023-02-01T15:12:30.043Z,45.70
2023-02-01T15:15:18.049Z,44.80
2023-02-01T15:18:04.127Z,44.70
2023-02-01T15:21:06.655Z,44.70
2023-02-01T15:24:15.252Z,44.40
2023-02-01T15:27:06.081Z,45.20
2023-02-01T15:29:51.951Z,45.40
2023-02-01T15:32:41.452Z,44.80
2023-02-01T15:35:39.259Z,44.80
2023-02-01T15:38:24.584Z,44.90
2023-02-01T15:41:22.078Z,45.30
2023-02-01T15:44:24.918Z,45.10
2023-02-01T15:47:19.580Z,45.90
2023-02-01T15:50:06.089Z,46.70
2023-02-01T15:52:53.712Z,46.80
2023-02-01T15:55:43.886Z,46.00
2023-02-01T15:58:30.025Z,46.40
2023-02-01T16:01:15.944Z,46.00
2023-02-01T16:04:19.669Z,47.10
2023-02-01T16:07:23.750Z,46.50
2023-02-01T16:10:28.307Z,47.60
2023-02-01T16:13:15.177Z,47.80
2023-02-01T16:16:00.445Z,48.30
2023-02-01T16:18:46.205Z,47.60
2023-02-01T16:21:31.658Z,48.10
2023-02-01T16:24:17.208Z,48.50
2023-02-01T16:27:03.964Z,48.70
2023-02-01T16:29:49.747Z,48.80
2023-02-01T16:32:34.892Z,49.00
2023-02-01T16:35:24.453Z,50.80
2023-02-01T16:38:14.088Z,51.20
2023-02-01T16:41:00.368Z,51.10
2023-02-01T16:43:45.777Z,51.80
2023-02-01T16:46:34.977Z,51.40
2023-02-01T16:49:26.959Z,51.40
2023-02-01T16:52:21.733Z,51.60
2023-02-01T16:55:15.061Z,52.10
2023-02-01T16:58:00.628Z,51.90
2023-02-01T17:00:47.700Z,52.20
2023-02-01T17:03:33.255Z,52.70
2023-02-01T17:06:22.661Z,52.90
2023-02-01T17:09:08.264Z,53.00
2023-02-01T17:11:53.523Z,53.10
2023-02-01T17:14:41.514Z,53.40
2023-02-01T17:17:39.833Z,53.20
2023-02-01T17:20:28.795Z,53.30
2023-02-01T17:23:16.150Z,53.00
2023-02-01T17:26:03.221Z,53.30
2023-02-01T17:28:48.627Z,53.60
2023-02-01T17:31:38.379Z,52.70
2023-02-01T17:34:23.806Z,53.40
2023-02-01T17:37:23.427Z,52.80
2023-02-01T17:40:10.592Z,53.60
2023-02-01T17:42:58.012Z,51.90
2023-02-01T17:45:56.427Z,51.80
2023-02-01T17:48:41.887Z,52.40
2023-02-01T17:51:28.987Z,51.60
2023-02-01T17:54:15.325Z,51.50
2023-02-01T17:57:03.448Z,51.40
2023-02-01T17:59:48.780Z,51.00
2023-02-01T18:02:34.329Z,50.90
2023-02-01T18:05:28.815Z,51.10
2023-02-01T18:08:14.036Z,51.00
2023-02-01T18:11:01.294Z,51.10
2023-02-01T18:13:48.006Z,49.50
2023-02-01T18:16:34.708Z,49.40
2023-02-01T18:19:20.250Z,50.60
2023-02-01T18:22:06.422Z,50.70
2023-02-01T18:24:51.904Z,49.50
2023-02-01T18:27:37.265Z,50.90
2023-02-01T18:30:25.941Z,51.50
2023-02-01T18:33:13.381Z,52.50
2023-02-01T18:35:58.952Z,52.80
2023-02-01T18:38:44.423Z,54.10
2023-02-01T18:41:29.625Z,54.00
2023-02-01T18:44:16.242Z,54.80
2023-02-01T18:47:01.390Z,55.00
2023-02-01T18:49:46.843Z,55.30
2023-02-01T18:52:32.308Z,56.30
2023-02-01T18:55:17.931Z,56.50
2023-02-01T18:58:06.597Z,56.60
2023-02-01T19:00:53.931Z,56.80
2023-02-01T19:03:43.706Z,57.10
2023-02-01T19:06:31.206Z,56.80
2023-02-01T19:09:16.496Z,57.00
2023-02-01T19:12:03.142Z,56.60
2023-02-01T19:14:48.557Z,56.50
2023-02-01T19:17:34.979Z,56.90
2023-02-01T19:20:22.955Z,56.40
2023-02-01T19:23:09.234Z,56.00
2023-02-01T19:25:54.625Z,56.30
2023-02-01T19:28:40.524Z,55.50
2023-02-01T19:31:26.270Z,55.90
2023-02-01T19:34:11.494Z,55.50
2023-02-01T19:36:57.234Z,55.50
2023-02-01T19:39:42.936Z,55.30
2023-02-01T19:42:28.717Z,55.60
2023-02-01T19:45:14.825Z,55.50
2023-02-01T19:48:03.254Z,55.20
2023-02-01T19:50:48.821Z,55.60
2023-02-01T19:53:34.289Z,55.50
2023-02-01T19:56:19.679Z,55.70
2023-02-01T19:59:05.282Z,56.30
2023-02-01T20:01:50.717Z,56.00
2023-02-01T20:04:35.835Z,56.30
2023-02-01T20:07:21.989Z,56.10
2023-02-01T20:10:08.420Z,56.60
2023-02-01T20:12:53.758Z,56.00
2023-02-01T20:15:42.057Z,56.10
2023-02-01T20:18:28.125Z,55.90
2023-02-01T20:21:14.077Z,56.40
2023-02-01T20:23:59.601Z,57.10
2023-02-01T20:26:46.877Z,56.40
2023-02-01T20:29:32.784Z,56.40
2023-02-01T20:32:18.201Z,56.20
2023-02-01T20:35:03.586Z,56.40
2023-02-01T20:37:50.010Z,56.50
2023-02-01T20:40:37.855Z,56.10
2023-02-01T20:43:23.307Z,56.00
2023-02-01T20:46:09.786Z,56.00
2023-02-01T20:48:55.204Z,55.80
2023-02-01T20:51:40.593Z,55.90
2023-02-01T20:54:26.207Z,56.00
2023-02-01T20:57:11.438Z,56.10
2023-02-01T20:59:57.014Z,56.50
2023-02-01T21:02:42.479Z,56.10
2023-02-01T21:05:39.971Z,56.30
2023-02-01T21:08:27.397Z,56.80
2023-02-01T21:11:14.254Z,56.80
2023-02-01T21:14:00.482Z,56.60
2023-02-01T21:16:46.261Z,56.70
2023-02-01T21:19:42.756Z,56.60
2023-02-01T21:22:28.202Z,56.10
2023-02-01T21:25:13.935Z,56.20
2023-02-01T21:27:59.093Z,55.90
2023-02-01T21:30:44.753Z,55.80
2023-02-01T21:33:30.298Z,55.60
2023-02-01T21:36:19.974Z,55.60
2023-02-01T21:39:08.626Z,55.50
2023-02-01T21:42:12.422Z,55.50
2023-02-01T21:44:59.514Z,55.00
2023-02-01T21:47:44.873Z,54.90
2023-02-01T21:50:30.232Z,54.50
2023-02-01T21:53:15.768Z,54.60
2023-02-01T21:56:01.226Z,54.70
2023-02-01T21:58:46.842Z,55.60
2023-02-01T22:01:32.683Z,54.70
2023-02-01T22:04:18.152Z,54.30
2023-02-01T22:07:03.747Z,54.60
2023-02-01T22:09:49.140Z,54.10
2023-02-01T22:12:34.752Z,54.20
2023-02-01T22:15:20.162Z,53.70
2023-02-01T22:18:05.912Z,53.70
2023-02-01T22:20:57.534Z,53.70
2023-02-01T22:23:42.979Z,53.80
2023-02-01T22:26:28.787Z,53.90
2023-02-01T22:29:14.877Z,54.10
2023-02-01T22:32:00.169Z,54.00
2023-02-01T22:34:45.810Z,54.50
2023-02-01T22:37:31.499Z,54.40
2023-02-01T22:40:17.084Z,55.10
2023-02-01T22:43:03.117Z,55.00
2023-02-01T22:45:48.584Z,55.00
2023-02-01T22:48:37.725Z,55.10
2023-02-01T22:51:25.534Z,54.90
2023-02-01T22:54:21.429Z,54.70
2023-02-01T22:57:08.059Z,55.00
2023-02-01T22:59:53.262Z,54.50
2023-02-01T23:02:41.585Z,54.30
2023-02-01T23:05:27.253Z,53.50
2023-02-01T23:08:12.521Z,54.10
2023-02-01T23:11:04.196Z,54.40
2023-02-01T23:13:50.359Z,54.40
2023-02-01T23:16:36.301Z,54.30
2023-02-01T23:19:21.890Z,54.40
2023-02-01T23:22:07.285Z,54.20
2023-02-01T23:24:52.905Z,53.70
2023-02-01T23:27:38.790Z,54.80
2023-02-01T23:30:24.480Z,53.70
2023-02-01T23:33:09.617Z,53.90
2023-02-01T23:36:00.987Z,53.80
2023-02-01T23:38:47.557Z,53.80
2023-02-01T23:41:32.938Z,54.10
2023-02-01T23:44:18.245Z,53.90
2023-02-01T23:47:03.879Z,54.20
2023-02-01T23:49:48.999Z,54.50
2023-02-01T23:52:34.508Z,53.80
2023-02-01T23:55:19.825Z,53.50
2023-02-01T23:58:05.390Z,53.30
